Time;durP1;ratioP1;P1;durP2;ratioP2;P2;SDS_P1;SDS_P2;PMS_P1;PMS_P2;Temp;Humidity;BMP_temperature;BMP_pressure;BME280_temperature;BME280_humidity;BME280_pressure;Samples;Min_cycle;Max_cycle;Signal;HPM_P1;HPM_P2
2022/11/27 00:02:13;;;;;;;5.70;2.30;;;22.80;99.80;;;;;;5049858;28;20437;-82
2022/11/27 00:04:40;;;;;;;8.10;2.63;;;22.80;99.90;;;;;;5048827;28;20400;-79
2022/11/27 00:07:07;;;;;;;6.90;2.47;;;22.60;99.80;;;;;;5051253;28;20388;-78
2022/11/27 00:09:34;;;;;;;6.88;2.50;;;22.40;99.90;;;;;;5050346;28;20989;-77
2022/11/27 00:12:01;;;;;;;7.55;2.50;;;22.10;99.90;;;;;;5049586;28;20371;-82
2022/11/27 00:14:28;;;;;;;6.60;2.45;;;21.90;99.90;;;;;;5049158;28;20457;-80
2022/11/27 00:16:56;;;;;;;7.18;2.50;;;21.90;99.90;;;;;;5049699;28;20372;-79
2022/11/27 00:19:23;;;;;;;6.43;2.33;;;21.80;99.90;;;;;;5049283;28;20380;-86
2022/11/27 00:21:50;;;;;;;11.65;2.75;;;21.80;99.90;;;;;;5056109;28;20424;-82
2022/11/27 00:24:17;;;;;;;9.85;2.50;;;21.90;99.90;;;;;;5061239;28;20380;-86
2022/11/27 00:26:45;;;;;;;5.45;2.53;;;21.90;99.90;;;;;;5068383;28;20378;-76
2022/11/27 00:29:12;;;;;;;20.35;3.33;;;22.00;99.90;;;;;;5055011;28;20375;-78
2022/11/27 00:31:39;;;;;;;23.65;3.30;;;22.10;99.90;;;;;;5067329;28;20378;-84
2022/11/27 00:34:07;;;;;;;18.42;2.95;;;22.20;99.90;;;;;;5060587;28;20428;-78
2022/11/27 00:36:35;;;;;;;20.95;3.13;;;22.50;99.90;;;;;;5069456;28;20384;-88
2022/11/27 00:39:04;;;;;;;6.55;2.42;;;22.60;99.90;;;;;;5069796;28;20417;-83
2022/11/27 00:41:31;;;;;;;6.72;2.35;;;22.90;99.90;;;;;;5067601;28;20410;-79
2022/11/27 00:44:01;;;;;;;7.50;2.25;;;23.00;99.90;;;;;;5072746;28;20378;-83
2022/11/27 00:46:30;;;;;;;7.13;2.50;;;23.20;99.60;;;;;;5067598;28;20391;-82
2022/11/27 00:48:59;;;;;;;11.73;2.70;;;23.30;99.40;;;;;;5072739;28;20950;-84
2022/11/27 00:51:26;;;;;;;8.18;2.60;;;23.50;99.30;;;;;;5068712;28;20768;-74
2022/11/27 00:53:54;;;;;;;7.03;2.50;;;23.80;98.20;;;;;;5064195;28;20397;-82
2022/11/27 00:56:30;;;;;;;7.72;2.60;;;23.80;97.80;;;;;;5069821;28;20388;-83
2022/11/27 00:58:58;;;;;;;7.25;2.70;;;23.60;98.30;;;;;;5066402;28;20422;-81
2022/11/27 01:01:28;;;;;;;10.40;2.60;;;23.40;98.80;;;;;;5055755;28;20400;-84
2022/11/27 01:03:59;;;;;;;7.00;2.78;;;23.20;99.00;;;;;;5067511;28;20386;-80
2022/11/27 01:06:28;;;;;;;8.65;2.60;;;23.30;99.20;;;;;;5071381;28;20467;-77
2022/11/27 01:08:55;;;;;;;7.50;2.47;;;23.30;98.50;;;;;;5055138;28;20406;-80
2022/11/27 01:11:26;;;;;;;6.30;2.70;;;23.30;98.90;;;;;;5054185;28;20420;-83
2022/11/27 01:13:55;;;;;;;10.40;2.58;;;23.30;98.60;;;;;;5066089;28;20374;-79
2022/11/27 01:16:24;;;;;;;5.30;2.53;;;23.50;98.90;;;;;;5061822;28;20474;-78
2022/11/27 01:18:53;;;;;;;10.73;2.70;;;23.70;98.80;;;;;;5061567;28;20749;-81
2022/11/27 01:21:21;;;;;;;8.40;2.65;;;24.00;98.00;;;;;;5051200;28;20885;-82
2022/11/27 01:23:49;;;;;;;6.70;2.58;;;24.00;98.00;;;;;;5072641;28;20370;-82
2022/11/27 01:26:17;;;;;;;8.20;2.70;;;23.90;97.60;;;;;;5059249;28;20395;-79
2022/11/27 01:28:45;;;;;;;6.35;2.60;;;23.70;98.30;;;;;;5054592;28;20382;-79
2022/11/27 01:31:15;;;;;;;8.05;2.50;;;23.50;98.70;;;;;;5072520;28;20385;-80
2022/11/27 01:33:43;;;;;;;8.13;2.53;;;23.40;98.90;;;;;;5072316;28;20370;-79
2022/11/27 01:36:15;;;;;;;6.10;2.50;;;23.40;99.30;;;;;;5070641;28;20410;-84
2022/11/27 01:38:42;;;;;;;4.88;2.45;;;23.50;98.70;;;;;;5071497;28;20729;-80
2022/11/27 01:41:17;;;;;;;7.50;2.33;;;23.40;98.90;;;;;;5047685;28;20516;-79
2022/11/27 01:43:56;;;;;;;6.90;2.47;;;23.40;98.60;;;;;;5051521;28;20393;-77
2022/11/27 01:46:38;;;;;;;7.70;2.60;;;23.20;99.10;;;;;;5061083;28;20380;-80
2022/11/27 01:49:18;;;;;;;6.72;2.67;;;23.40;99.40;;;;;;5053489;28;20370;-80
2022/11/27 01:52:04;;;;;;;7.47;2.40;;;23.60;98.90;;;;;;5051665;28;20396;-78
2022/11/27 01:54:54;;;;;;;9.87;2.70;;;23.90;98.60;;;;;;5047866;28;20391;-80
2022/11/27 01:57:30;;;;;;;7.65;2.45;;;24.00;98.50;;;;;;5055266;28;20750;-77
2022/11/27 01:59:59;;;;;;;7.10;2.70;;;24.30;97.80;;;;;;5063582;28;20440;-78
2022/11/27 02:02:26;;;;;;;6.50;2.55;;;24.20;97.40;;;;;;5056924;28;20401;-79
2022/11/27 02:04:54;;;;;;;8.23;2.50;;;24.10;97.90;;;;;;5062136;28;20447;-86
2022/11/27 02:07:21;;;;;;;6.53;2.58;;;24.10;97.90;;;;;;5065126;28;20394;-81
2022/11/27 02:09:48;;;;;;;7.03;2.60;;;24.20;98.30;;;;;;5039158;28;20383;-80
2022/11/27 02:12:44;;;;;;;6.30;2.63;;;24.30;98.00;;;;;;5067781;28;20381;-83
2022/11/27 02:15:22;;;;;;;5.80;2.67;;;24.30;97.80;;;;;;5070761;28;20419;-83
2022/11/27 02:18:17;;;;;;;7.68;2.60;;;24.30;97.70;;;;;;5057298;28;20417;-81
2022/11/27 02:20:50;;;;;;;10.15;2.85;;;24.20;97.90;;;;;;5070231;28;20824;-80
2022/11/27 02:23:53;;;;;;;8.60;2.67;;;24.10;98.30;;;;;;5071591;28;20398;-86
2022/11/27 02:26:57;;;;;;;8.40;2.80;;;24.20;98.50;;;;;;5071495;28;20384;-78
2022/11/27 02:29:26;;;;;;;6.65;2.78;;;24.50;98.30;;;;;;5062904;28;20516;-77
2022/11/27 02:32:23;;;;;;;7.22;2.53;;;24.90;97.70;;;;;;5062605;28;20963;-80
2022/11/27 02:35:17;;;;;;;5.32;2.30;;;25.60;97.20;;;;;;5071078;28;20728;-80
2022/11/27 02:37:57;;;;;;;8.35;2.70;;;26.70;95.00;;;;;;5070834;28;20466;-82
2022/11/27 02:40:50;;;;;;;6.13;2.70;;;27.50;93.10;;;;;;5061051;28;20488;-83
2022/11/27 02:43:47;;;;;;;9.38;2.90;;;28.40;92.40;;;;;;5063420;28;20830;-80
2022/11/27 02:46:16;;;;;;;6.15;2.55;;;30.30;85.70;;;;;;5058563;28;20399;-83
2022/11/27 02:48:47;;;;;;;5.45;2.50;;;30.30;80.20;;;;;;5055515;28;20386;-82
2022/11/27 02:51:17;;;;;;;6.17;2.80;;;30.10;82.80;;;;;;5060199;28;20736;-82
2022/11/27 02:53:52;;;;;;;7.13;2.65;;;31.20;81.40;;;;;;5050501;28;20388;-82
2022/11/27 02:56:24;;;;;;;9.07;3.72;;;31.50;76.50;;;;;;5060896;28;20459;-83
2022/11/27 02:58:54;;;;;;;4.63;2.80;;;31.20;75.90;;;;;;5030941;28;20525;-82
2022/11/27 03:01:22;;;;;;;5.32;2.63;;;31.20;72.90;;;;;;5046369;28;20423;-84
2022/11/27 03:03:54;;;;;;;5.70;2.70;;;30.40;75.00;;;;;;5050934;28;20434;-83
2022/11/27 03:06:39;;;;;;;7.00;3.00;;;30.10;76.00;;;;;;5052462;28;20496;-83
2022/11/27 03:09:22;;;;;;;9.85;3.60;;;30.00;75.70;;;;;;5044113;28;20445;-82
2022/11/27 03:11:49;;;;;;;6.97;2.90;;;29.60;77.20;;;;;;5045499;28;20407;-83
2022/11/27 03:14:16;;;;;;;5.85;2.78;;;29.30;77.90;;;;;;5048461;28;20452;-83
2022/11/27 03:16:43;;;;;;;8.10;2.70;;;29.10;79.40;;;;;;5046244;28;20456;-83
2022/11/27 03:19:29;;;;;;;6.95;2.78;;;29.50;79.50;;;;;;5045914;28;20490;-83
2022/11/27 03:21:58;;;;;;;8.82;2.80;;;30.80;79.10;;;;;;5047295;28;20430;-83
2022/11/27 03:24:28;;;;;;;6.55;2.70;;;32.00;73.40;;;;;;5060197;28;20444;-85
2022/11/27 03:26:57;;;;;;;6.30;2.37;;;32.20;71.10;;;;;;5035887;28;20397;-83
2022/11/27 03:29:44;;;;;;;6.00;2.40;;;32.30;70.70;;;;;;5066352;28;20388;-83
2022/11/27 03:32:11;;;;;;;8.93;3.30;;;32.50;68.70;;;;;;5036047;28;20373;-84
2022/11/27 03:34:40;;;;;;;4.63;2.60;;;33.20;67.90;;;;;;5066044;28;20750;-84
2022/11/27 03:37:07;;;;;;;13.38;3.80;;;34.60;63.70;;;;;;5038817;28;20436;-84
2022/11/27 03:39:35;;;;;;;4.50;2.00;;;35.60;61.00;;;;;;5063791;28;20382;-84
2022/11/27 03:42:24;;;;;;;4.18;1.95;;;36.40;56.20;;;;;;5066453;28;20394;-84
2022/11/27 03:45:18;;;;;;;10.32;2.70;;;36.40;56.70;;;;;;5054126;28;20382;-82
2022/11/27 03:48:06;;;;;;;5.00;2.15;;;37.40;54.20;;;;;;5055024;28;20382;-83
2022/11/27 03:50:55;;;;;;;5.90;2.80;;;38.00;52.70;;;;;;5061058;28;20799;-87
2022/11/27 03:53:37;;;;;;;10.10;3.00;;;37.20;51.40;;;;;;5054284;28;20388;-85
2022/11/27 03:56:13;;;;;;;6.78;2.90;;;35.40;53.50;;;;;;5045890;28;20384;-85
2022/11/27 03:58:49;;;;;;;7.40;2.75;;;34.10;56.70;;;;;;5047384;28;20867;-89
2022/11/27 04:01:19;;;;;;;4.80;2.33;;;32.80;56.50;;;;;;5060841;28;20397;-87
2022/11/27 04:03:46;;;;;;;4.50;2.28;;;31.90;58.70;;;;;;5047679;28;20414;-85
2022/11/27 04:06:13;;;;;;;4.10;1.92;;;31.30;61.00;;;;;;5051430;28;20464;-87
2022/11/27 04:08:40;;;;;;;6.20;2.00;;;30.90;61.20;;;;;;5049683;28;20740;-88
2022/11/27 04:11:07;;;;;;;5.32;2.40;;;30.60;61.70;;;;;;5045248;28;20394;-85
2022/11/27 04:13:35;;;;;;;5.10;2.13;;;30.40;62.90;;;;;;5046301;28;20388;-86
2022/11/27 04:16:03;;;;;;;5.45;1.98;;;30.30;63.70;;;;;;5051257;28;21248;-85
2022/11/27 04:18:31;;;;;;;4.32;1.80;;;30.20;62.90;;;;;;5050702;28;20385;-85
2022/11/27 04:20:58;;;;;;;2.95;1.80;;;30.10;63.50;;;;;;5050635;28;20425;-90
2022/11/27 04:23:25;;;;;;;3.15;1.73;;;29.70;64.70;;;;;;5053033;28;20445;-88
2022/11/27 04:25:52;;;;;;;7.82;2.50;;;29.40;64.40;;;;;;5055428;28;20397;-87
2022/11/27 04:28:19;;;;;;;9.82;3.08;;;29.10;67.20;;;;;;5053224;28;20386;-86
2022/11/27 04:30:51;;;;;;;9.77;3.35;;;28.80;71.10;;;;;;5060215;28;20392;-86
2022/11/27 04:33:18;;;;;;;10.17;3.57;;;28.60;73.70;;;;;;5054250;28;20374;-87
2022/11/27 04:35:45;;;;;;;8.13;3.13;;;28.00;80.60;;;;;;5050530;28;20455;-87
2022/11/27 04:38:13;;;;;;;5.95;3.25;;;27.40;83.30;;;;;;5065117;28;20378;-86
2022/11/27 04:40:40;;;;;;;8.23;3.22;;;27.10;85.10;;;;;;5056783;28;20882;-82
2022/11/27 04:43:07;;;;;;;5.80;3.03;;;26.90;86.20;;;;;;5032391;28;20799;-80
2022/11/27 04:45:34;;;;;;;7.63;3.22;;;26.80;87.30;;;;;;5069101;28;20745;-81
2022/11/27 04:48:01;;;;;;;7.13;3.00;;;26.90;89.10;;;;;;5069490;28;20380;-81
2022/11/27 04:50:28;;;;;;;7.18;3.20;;;27.00;88.60;;;;;;5069345;28;20378;-81
2022/11/27 04:52:55;;;;;;;8.77;2.97;;;27.10;88.10;;;;;;5069609;28;20370;-80
2022/11/27 04:55:22;;;;;;;7.22;3.20;;;27.20;88.70;;;;;;5069149;28;20927;-83
2022/11/27 04:57:49;;;;;;;9.63;3.15;;;27.10;88.60;;;;;;5069373;28;20459;-85
2022/11/27 05:00:17;;;;;;;9.80;3.10;;;27.10;89.10;;;;;;5069202;28;20492;-84
2022/11/27 05:02:44;;;;;;;8.18;3.10;;;26.90;89.50;;;;;;5069371;28;20408;-82
2022/11/27 05:05:11;;;;;;;6.53;3.30;;;26.90;89.90;;;;;;5069296;28;20861;-82
2022/11/27 05:07:38;;;;;;;8.13;3.10;;;27.00;89.90;;;;;;5051248;28;20466;-85
2022/11/27 05:10:06;;;;;;;7.22;2.88;;;27.20;89.80;;;;;;5069394;28;20503;-82
2022/11/27 05:12:33;;;;;;;6.80;3.20;;;27.70;88.20;;;;;;5069113;28;20386;-79
2022/11/27 05:15:00;;;;;;;6.15;2.97;;;28.00;87.30;;;;;;5068843;28;20466;-83
2022/11/27 05:17:27;;;;;;;7.47;2.90;;;28.20;86.80;;;;;;5068909;28;20382;-83
2022/11/27 05:19:54;;;;;;;8.83;3.00;;;28.20;85.50;;;;;;5060415;28;20395;-81
2022/11/27 05:22:21;;;;;;;8.68;2.97;;;28.30;85.50;;;;;;5045698;28;20382;-81
2022/11/27 05:24:48;;;;;;;5.85;2.90;;;28.50;84.30;;;;;;5068772;28;20373;-80
2022/11/27 05:27:15;;;;;;;7.15;2.92;;;28.70;83.60;;;;;;5063265;28;20926;-82
2022/11/27 05:29:42;;;;;;;8.43;2.95;;;28.80;83.20;;;;;;5067760;28;20392;-81
2022/11/27 05:32:09;;;;;;;6.20;2.90;;;28.70;83.60;;;;;;5068212;28;20749;-82
2022/11/27 05:34:36;;;;;;;6.60;2.80;;;28.50;84.40;;;;;;5054994;28;20376;-80
2022/11/27 05:37:03;;;;;;;7.43;2.87;;;28.40;82.60;;;;;;5068093;28;20738;-83
2022/11/27 05:39:30;;;;;;;4.97;2.83;;;28.20;84.10;;;;;;5068538;28;20374;-84
2022/11/27 05:41:57;;;;;;;8.20;3.00;;;28.10;83.90;;;;;;5068380;28;20817;-81
2022/11/27 05:44:25;;;;;;;9.45;4.75;;;28.00;84.20;;;;;;5068786;28;20428;-80
2022/11/27 05:46:52;;;;;;;8.18;4.40;;;28.00;84.60;;;;;;5054374;28;20391;-85
2022/11/27 05:49:20;;;;;;;6.03;2.78;;;27.90;85.00;;;;;;5047781;28;20800;-87
2022/11/27 05:51:47;;;;;;;5.10;2.92;;;28.20;84.50;;;;;;5059249;28;20729;-85
2022/11/27 05:54:14;;;;;;;7.43;2.78;;;28.30;82.90;;;;;;5068478;28;20378;-87
2022/11/27 05:56:40;;;;;;;5.07;2.40;;;28.20;82.00;;;;;;5066736;28;20418;-84
2022/11/27 05:59:09;;;;;;;3.88;1.92;;;28.00;84.80;;;;;;5067657;28;20382;-82
2022/11/27 06:01:36;;;;;;;4.32;2.25;;;27.80;87.90;;;;;;5059638;28;20408;-88
2022/11/27 06:04:03;;;;;;;2.70;1.80;;;27.50;87.30;;;;;;5065878;28;20366;-86
2022/11/27 06:06:30;;;;;;;7.28;4.60;;;28.10;86.80;;;;;;5064791;28;20386;-86
2022/11/27 06:08:57;;;;;;;4.38;2.53;;;29.10;87.00;;;;;;5068284;28;20370;-87
2022/11/27 06:11:24;;;;;;;7.28;2.20;;;29.80;82.80;;;;;;5059777;28;20744;-84
2022/11/27 06:13:51;;;;;;;5.85;2.50;;;30.20;81.00;;;;;;5067657;28;20383;-85
2022/11/27 06:16:21;;;;;;;6.80;2.20;;;30.30;80.70;;;;;;5060564;28;20395;-86
2022/11/27 06:18:55;;;;;;;4.25;2.05;;;30.80;79.20;;;;;;5061359;28;20378;-86
2022/11/27 06:21:24;;;;;;;4.82;1.83;;;30.70;76.80;;;;;;5049806;28;20401;-85
2022/11/27 06:23:54;;;;;;;3.40;1.60;;;31.10;76.10;;;;;;5060840;28;20462;-86
2022/11/27 06:26:29;;;;;;;3.55;1.60;;;31.70;73.30;;;;;;5063223;28;20435;-86
2022/11/27 06:28:58;;;;;;;5.43;2.10;;;32.10;72.10;;;;;;5067650;28;20917;-85
2022/11/27 06:31:28;;;;;;;5.53;2.60;;;32.40;69.50;;;;;;5061975;28;20393;-85
2022/11/27 06:33:56;;;;;;;8.48;2.72;;;32.70;67.80;;;;;;5055992;28;20397;-86
2022/11/27 06:36:35;;;;;;;6.53;3.08;;;33.10;66.80;;;;;;5067451;28;20484;-86
2022/11/27 06:39:04;;;;;;;5.63;2.90;;;33.40;65.40;;;;;;5067227;28;20474;-86
2022/11/27 06:41:32;;;;;;;7.85;3.47;;;32.90;62.60;;;;;;5067432;28;20502;-86
2022/11/27 06:44:00;;;;;;;7.57;3.90;;;31.90;64.40;;;;;;5066545;28;20379;-86
2022/11/27 06:46:28;;;;;;;6.78;3.40;;;31.10;66.60;;;;;;5060319;28;20865;-83
2022/11/27 06:48:56;;;;;;;7.38;3.90;;;30.30;68.10;;;;;;5066492;28;20780;-89
2022/11/27 06:51:26;;;;;;;7.00;4.00;;;29.60;71.40;;;;;;5057767;28;20561;-90
2022/11/27 06:53:53;;;;;;;5.10;2.70;;;29.20;72.40;;;;;;5065028;28;20401;-87
2022/11/27 06:56:25;;;;;;;4.30;2.10;;;28.90;73.00;;;;;;5067636;28;20394;-87
2022/11/27 06:58:54;;;;;;;3.60;2.00;;;28.60;73.20;;;;;;5057521;28;20404;-86
2022/11/27 07:01:22;;;;;;;3.47;1.80;;;28.40;73.80;;;;;;5058398;28;20432;-88
2022/11/27 07:03:49;;;;;;;2.88;1.70;;;28.20;74.80;;;;;;5057543;28;20391;-88
2022/11/27 07:06:19;;;;;;;3.88;1.63;;;28.00;76.70;;;;;;5047383;28;20419;-84
2022/11/27 07:08:47;;;;;;;3.83;1.60;;;27.80;77.30;;;;;;5061964;28;20380;-87
2022/11/27 07:11:17;;;;;;;2.55;1.60;;;27.60;78.20;;;;;;5052515;28;20461;-86
2022/11/27 07:13:45;;;;;;;2.45;1.30;;;27.40;79.20;;;;;;5047315;28;20380;-90
2022/11/27 07:16:14;;;;;;;2.72;1.30;;;27.20;80.30;;;;;;5038997;28;20424;-83
2022/11/27 07:18:43;;;;;;;4.07;1.52;;;27.10;80.30;;;;;;5050352;28;20398;-88
2022/11/27 07:21:11;;;;;;;3.33;1.60;;;27.00;81.40;;;;;;5052721;28;20409;-87
2022/11/27 07:23:38;;;;;;;2.97;1.50;;;26.90;81.30;;;;;;5054837;28;20389;-86
2022/11/27 07:26:11;;;;;;;2.85;1.40;;;26.70;82.80;;;;;;5062364;28;20390;-85
2022/11/27 07:28:39;;;;;;;3.38;1.60;;;26.60;83.90;;;;;;5037745;28;20371;-86
2022/11/27 07:31:06;;;;;;;4.03;1.42;;;26.60;83.70;;;;;;5059738;28;20458;-85
2022/11/27 07:33:33;;;;;;;4.53;1.65;;;26.40;85.80;;;;;;5067096;28;20503;-86
2022/11/27 07:36:03;;;;;;;3.55;1.80;;;26.30;85.10;;;;;;5059222;28;20430;-83
2022/11/27 07:38:30;;;;;;;3.63;1.83;;;26.10;86.10;;;;;;5060499;28;21069;-86
2022/11/27 07:41:02;;;;;;;4.25;2.00;;;26.00;86.50;;;;;;5056139;28;20432;-85
2022/11/27 07:43:31;;;;;;;3.33;1.83;;;25.90;88.00;;;;;;5059548;28;20386;-86
2022/11/27 07:46:02;;;;;;;3.42;1.80;;;25.70;90.20;;;;;;5066647;28;20422;-87
2022/11/27 07:48:29;;;;;;;6.40;2.80;;;25.60;90.10;;;;;;5055310;28;20376;-87
2022/11/27 07:50:55;;;;;;;7.00;2.30;;;25.20;91.80;;;;;;5066009;28;20788;-88
2022/11/27 07:53:22;;;;;;;3.78;2.15;;;24.50;91.40;;;;;;5061374;28;20381;-86
2022/11/27 07:55:49;;;;;;;7.87;2.50;;;24.60;92.40;;;;;;5061210;28;20384;-86
2022/11/27 07:58:17;;;;;;;5.47;1.75;;;24.40;93.80;;;;;;5058790;28;21001;-87
2022/11/27 08:00:44;;;;;;;4.20;1.70;;;24.00;95.50;;;;;;5060972;28;20414;-85
2022/11/27 08:03:15;;;;;;;9.50;2.38;;;23.80;97.30;;;;;;5062755;28;20411;-90
2022/11/27 08:05:42;;;;;;;3.63;1.95;;;23.30;99.90;;;;;;5050297;28;20865;-86
2022/11/27 08:08:09;;;;;;;4.53;2.13;;;22.70;99.90;;;;;;5048412;28;20395;-87
2022/11/27 08:10:37;;;;;;;4.68;2.10;;;22.20;99.90;;;;;;5059967;28;20424;-94
2022/11/27 08:13:05;;;;;;;4.28;2.20;;;21.70;99.90;;;;;;5071834;28;20407;-85
2022/11/27 08:15:32;;;;;;;5.00;2.45;;;21.50;99.90;;;;;;5064141;28;20390;-87
2022/11/27 08:18:01;;;;;;;4.10;1.90;;;21.40;99.90;;;;;;5067849;28;20379;-92
2022/11/27 08:20:29;;;;;;;2.45;1.48;;;21.60;99.90;;;;;;5062793;28;20532;-89
2022/11/27 08:22:58;;;;;;;2.50;1.17;;;21.90;99.90;;;;;;5066511;28;20374;-84
2022/11/27 08:25:27;;;;;;;2.67;1.02;;;22.10;99.90;;;;;;5061821;28;20376;-94
2022/11/27 08:27:54;;;;;;;3.08;0.90;;;22.10;99.90;;;;;;5062178;28;20376;-93
2022/11/27 08:30:22;;;;;;;1.92;0.70;;;21.90;99.90;;;;;;5062732;28;20436;-87
2022/11/27 08:32:49;;;;;;;1.42;0.70;;;21.70;99.90;;;;;;5059386;28;20380;-83
2022/11/27 08:35:16;;;;;;;2.97;0.70;;;21.40;99.90;;;;;;5060648;28;20937;-85
2022/11/27 08:37:43;;;;;;;1.80;0.80;;;21.20;99.90;;;;;;5062955;28;20392;-84
2022/11/27 08:40:11;;;;;;;1.50;0.73;;;21.00;99.90;;;;;;5051694;28;20402;-86
2022/11/27 08:42:39;;;;;;;1.48;0.75;;;20.70;99.90;;;;;;5070734;28;20417;-87
2022/11/27 08:45:06;;;;;;;1.92;0.75;;;20.50;99.90;;;;;;5047785;28;20390;-86
2022/11/27 08:47:35;;;;;;;1.73;0.80;;;20.50;99.90;;;;;;5074727;28;20409;-85
2022/11/27 08:50:02;;;;;;;1.88;0.73;;;20.60;99.90;;;;;;5060195;28;20501;-93
2022/11/27 08:52:29;;;;;;;1.83;0.75;;;20.70;99.90;;;;;;5050507;28;20856;-88
2022/11/27 08:54:56;;;;;;;3.35;0.80;;;20.80;99.90;;;;;;5035284;28;20767;-86
2022/11/27 08:57:23;;;;;;;1.10;0.70;;;20.80;99.90;;;;;;5046522;28;20500;-85
2022/11/27 08:59:50;;;;;;;1.30;0.77;;;20.70;99.90;;;;;;5024575;28;20395;-84
2022/11/27 09:02:17;;;;;;;3.42;0.90;;;20.70;99.90;;;;;;5053497;28;20428;-88
2022/11/27 09:04:44;;;;;;;1.48;0.80;;;20.70;99.90;;;;;;5053311;28;20962;-85
2022/11/27 09:07:13;;;;;;;2.15;0.80;;;20.70;99.90;;;;;;5054925;28;20879;-85
2022/11/27 09:09:40;;;;;;;1.55;0.85;;;20.70;99.90;;;;;;5059930;28;20376;-86
2022/11/27 09:12:07;;;;;;;2.08;0.80;;;20.60;99.90;;;;;;5052043;28;20394;-83
2022/11/27 09:14:35;;;;;;;2.05;1.00;;;20.60;99.90;;;;;;5050220;28;20886;-89
2022/11/27 09:17:02;;;;;;;3.33;1.10;;;20.50;99.90;;;;;;5052077;28;20851;-85
2022/11/27 09:19:28;;;;;;;3.03;1.13;;;20.50;99.90;;;;;;5050337;28;20375;-87
2022/11/27 09:21:55;;;;;;;3.00;1.00;;;20.40;99.90;;;;;;5062639;28;20390;-88
2022/11/27 09:24:23;;;;;;;2.55;1.13;;;20.40;99.90;;;;;;5072767;28;20378;-84
2022/11/27 09:26:50;;;;;;;5.00;2.05;;;20.40;99.90;;;;;;5063552;28;20398;-85
2022/11/27 09:29:17;;;;;;;2.85;2.08;;;20.40;99.90;;;;;;5031992;28;20417;-85
2022/11/27 09:31:44;;;;;;;3.10;1.80;;;20.40;99.90;;;;;;5053457;28;20396;-85
2022/11/27 09:34:11;;;;;;;3.42;1.70;;;20.30;99.90;;;;;;5049761;28;20467;-85
2022/11/27 09:36:38;;;;;;;2.50;0.97;;;20.30;99.90;;;;;;5050629;28;20390;-85
2022/11/27 09:39:05;;;;;;;1.50;0.97;;;20.30;99.90;;;;;;5052733;28;20372;-85
2022/11/27 09:41:37;;;;;;;2.37;0.90;;;20.30;99.90;;;;;;5054120;28;20449;-84
2022/11/27 09:44:22;;;;;;;2.92;1.00;;;20.40;99.90;;;;;;5053641;28;20379;-86
2022/11/27 09:46:53;;;;;;;3.17;1.00;;;20.50;99.90;;;;;;5054298;28;20378;-84
2022/11/27 09:49:50;;;;;;;1.95;1.20;;;20.60;99.90;;;;;;5033037;28;20830;-87
2022/11/27 09:52:39;;;;;;;3.03;1.70;;;20.70;99.90;;;;;;5044987;28;20721;-85
2022/11/27 09:55:23;;;;;;;5.38;2.35;;;20.80;99.90;;;;;;5043602;28;20856;-88
2022/11/27 09:58:12;;;;;;;2.88;1.63;;;20.90;99.90;;;;;;5048861;28;20427;-85
2022/11/27 10:00:39;;;;;;;3.88;1.70;;;21.00;99.90;;;;;;5049187;28;20413;-82
2022/11/27 10:03:23;;;;;;;6.82;1.85;;;21.10;99.90;;;;;;5049008;28;20388;-83
2022/11/27 10:06:08;;;;;;;3.67;1.42;;;20.90;99.90;;;;;;5048154;28;20414;-83
2022/11/27 10:08:52;;;;;;;1.88;1.00;;;20.10;99.90;;;;;;5042166;28;20488;-84
2022/11/27 10:11:32;;;;;;;3.42;1.10;;;19.70;99.90;;;;;;5059021;28;20370;-86
2022/11/27 10:14:03;;;;;;;3.80;1.53;;;19.40;99.90;;;;;;5067591;28;20374;-83
2022/11/27 10:16:38;;;;;;;4.53;1.35;;;19.20;99.90;;;;;;5063711;28;20370;-84
2022/11/27 10:19:30;;;;;;;3.55;1.23;;;19.00;99.90;;;;;;5041968;28;20393;-84
2022/11/27 10:22:05;;;;;;;4.07;1.60;;;18.90;99.90;;;;;;5069631;28;20409;-88
2022/11/27 10:24:43;;;;;;;5.10;1.50;;;18.90;99.90;;;;;;5068208;28;20451;-86
2022/11/27 10:27:37;;;;;;;5.70;1.40;;;18.90;99.90;;;;;;5043799;28;20516;-83
2022/11/27 10:30:16;;;;;;;3.58;1.45;;;18.80;99.90;;;;;;5065643;28;20398;-84
2022/11/27 10:32:45;;;;;;;3.38;1.30;;;18.90;99.90;;;;;;5066659;28;20397;-83
2022/11/27 10:35:22;;;;;;;4.90;1.20;;;18.80;99.90;;;;;;5068181;28;20401;-88
2022/11/27 10:38:09;;;;;;;2.65;1.10;;;18.90;99.90;;;;;;5062377;28;20390;-83
2022/11/27 10:40:53;;;;;;;3.88;1.20;;;18.90;99.90;;;;;;5069201;28;20402;-83
2022/11/27 10:43:24;;;;;;;2.58;1.10;;;18.90;99.90;;;;;;5071832;28;20377;-84
2022/11/27 10:46:05;;;;;;;3.30;1.40;;;19.00;99.90;;;;;;5070913;28;20366;-83
2022/11/27 10:48:33;;;;;;;2.92;0.90;;;19.00;99.90;;;;;;5063400;28;20476;-86
2022/11/27 10:51:00;;;;;;;2.22;0.82;;;18.90;99.90;;;;;;5054474;28;20404;-86
2022/11/27 10:53:35;;;;;;;1.05;0.70;;;18.90;99.90;;;;;;5057270;28;20825;-83
2022/11/27 10:56:02;;;;;;;2.10;0.80;;;18.80;99.90;;;;;;5065167;28;20431;-90
2022/11/27 10:58:34;;;;;;;1.98;0.80;;;18.80;99.90;;;;;;5057428;28;20398;-84
2022/11/27 11:01:07;;;;;;;1.63;0.90;;;18.70;99.90;;;;;;5067969;28;20486;-91
2022/11/27 11:03:38;;;;;;;2.40;1.00;;;18.60;99.90;;;;;;5054254;28;20464;-86
2022/11/27 11:06:16;;;;;;;2.15;0.80;;;18.60;99.90;;;;;;5063155;28;20397;-83
2022/11/27 11:08:44;;;;;;;2.38;1.10;;;18.50;99.90;;;;;;5059243;28;20620;-83
2022/11/27 11:11:11;;;;;;;2.97;1.10;;;18.60;99.90;;;;;;5067994;28;20445;-87
2022/11/27 11:13:41;;;;;;;2.85;1.13;;;18.60;99.90;;;;;;5058666;28;20376;-91
2022/11/27 11:16:10;;;;;;;2.78;0.90;;;18.60;99.90;;;;;;5058387;28;20800;-86
2022/11/27 11:18:50;;;;;;;1.90;0.90;;;18.60;99.90;;;;;;5061757;28;20892;-83
2022/11/27 11:21:25;;;;;;;1.70;0.90;;;18.60;99.90;;;;;;5060534;28;20402;-86
2022/11/27 11:24:01;;;;;;;2.50;0.90;;;18.70;99.90;;;;;;5058485;28;20393;-87
2022/11/27 11:26:58;;;;;;;1.85;0.73;;;18.70;99.90;;;;;;5063752;28;20461;-88
2022/11/27 11:29:45;;;;;;;1.20;0.45;;;18.80;99.90;;;;;;5067812;28;20366;-85
2022/11/27 11:32:22;;;;;;;3.10;0.70;;;18.80;99.90;;;;;;5056151;28;20469;-83
2022/11/27 11:35:23;;;;;;;2.58;0.60;;;18.90;99.90;;;;;;5066854;28;20380;-83
2022/11/27 11:37:51;;;;;;;2.10;0.60;;;18.90;99.90;;;;;;5064384;28;20422;-90
2022/11/27 11:40:32;;;;;;;2.08;0.70;;;19.00;99.90;;;;;;5064296;28;20423;-90
2022/11/27 11:43:08;;;;;;;3.22;0.80;;;19.10;99.90;;;;;;5060330;28;20370;-84
2022/11/27 11:45:47;;;;;;;1.33;0.60;;;19.10;99.90;;;;;;5062687;28;20887;-91
2022/11/27 11:48:27;;;;;;;1.50;0.60;;;19.20;99.90;;;;;;5057946;28;20404;-84
2022/11/27 11:51:02;;;;;;;1.55;0.60;;;19.20;99.90;;;;;;5051474;28;20386;-92
2022/11/27 11:53:44;;;;;;;2.10;0.60;;;19.20;99.90;;;;;;5055467;28;20751;-86
2022/11/27 11:56:31;;;;;;;1.30;0.60;;;19.20;99.90;;;;;;5064467;28;20978;-85
2022/11/27 11:59:13;;;;;;;0.90;0.55;;;19.20;99.90;;;;;;5066049;28;20477;-88
2022/11/27 12:02:12;;;;;;;1.33;0.68;;;19.20;99.90;;;;;;5068189;28;20484;-85
2022/11/27 12:05:14;;;;;;;2.63;0.60;;;19.20;99.90;;;;;;5059132;28;20382;-84
2022/11/27 12:08:07;;;;;;;1.15;0.60;;;19.30;99.90;;;;;;5051582;28;20384;-87
2022/11/27 12:10:40;;;;;;;2.40;0.63;;;19.30;99.90;;;;;;5057258;28;20379;-88
2022/11/27 12:13:20;;;;;;;1.83;1.02;;;19.30;99.90;;;;;;5064723;28;20388;-90
2022/11/27 12:16:15;;;;;;;1.55;0.70;;;19.30;99.90;;;;;;5072605;28;20366;-92
2022/11/27 12:19:02;;;;;;;1.42;0.60;;;19.40;99.90;;;;;;5060144;28;20378;-82
2022/11/27 12:22:03;;;;;;;6.85;1.10;;;19.30;99.90;;;;;;5041315;28;20437;-84
2022/11/27 12:24:48;;;;;;;4.40;0.95;;;19.20;99.90;;;;;;5061103;28;20380;-86
2022/11/27 12:27:36;;;;;;;3.47;0.70;;;19.00;99.90;;;;;;5066439;28;20366;-90
2022/11/27 12:30:10;;;;;;;3.70;1.20;;;19.00;99.90;;;;;;5066481;28;20738;-84
2022/11/27 12:32:49;;;;;;;5.25;1.98;;;18.90;99.90;;;;;;5066800;28;20703;-85
2022/11/27 12:35:38;;;;;;;6.00;1.30;;;18.70;99.90;;;;;;5066120;28;20403;-81
2022/11/27 12:38:20;;;;;;;4.15;1.40;;;18.50;99.90;;;;;;5064397;28;20385;-83
2022/11/27 12:41:02;;;;;;;4.35;1.70;;;18.30;99.90;;;;;;5062969;28;20438;-83
2022/11/27 12:43:38;;;;;;;3.15;1.50;;;18.20;99.90;;;;;;5070484;28;20385;-83
2022/11/27 12:46:55;;;;;;;3.10;1.60;;;18.20;99.90;;;;;;5059352;28;20395;-86
2022/11/27 12:49:59;;;;;;;2.92;1.65;;;18.10;99.90;;;;;;4969685;28;20406;-83
2022/11/27 12:52:39;;;;;;;3.80;1.60;;;18.10;99.90;;;;;;4970827;28;20477;-85
2022/11/27 12:55:18;;;;;;;4.38;1.80;;;18.00;99.90;;;;;;4969807;28;20961;-88
2022/11/27 12:57:50;;;;;;;3.33;2.10;;;17.90;99.90;;;;;;4970347;28;20410;-89
2022/11/27 13:00:24;;;;;;;3.13;2.75;;;17.80;99.90;;;;;;4970073;28;20398;-85
2022/11/27 13:02:57;;;;;;;4.88;2.90;;;17.80;99.90;;;;;;4965620;28;20413;-84
2022/11/27 13:05:36;;;;;;;4.40;2.37;;;17.80;99.90;;;;;;4973324;28;20411;-89
2022/11/27 13:08:20;;;;;;;4.50;2.20;;;17.80;99.90;;;;;;4978343;28;20863;-85
2022/11/27 13:11:04;;;;;;;3.53;2.00;;;17.70;99.90;;;;;;4974017;28;20932;-88
2022/11/27 13:13:40;;;;;;;9.02;3.47;;;17.70;99.90;;;;;;4974694;28;20791;-85
2022/11/27 13:16:17;;;;;;;0.30;0.25;;;17.70;99.90;;;;;;4968408;28;20409;-85